sensor_id;sensor_type;location;lat;lon;timestamp;pressure;altitude;pressure_sealevel;temperature;humidity
72024;BME280;59889;50.700;5.440;2022-09-23T00:02:01;100237.67;;;23.98;31.61
72024;BME280;59889;50.700;5.440;2022-09-23T00:04:26;100239.94;;;24.00;31.55
72024;BME280;59889;50.700;5.440;2022-09-23T00:06:51;100239.33;;;24.02;31.55
72024;BME280;59889;50.700;5.440;2022-09-23T00:09:16;100239.13;;;23.77;31.56
72024;BME280;59889;50.700;5.440;2022-09-23T00:11:41;100240.12;;;23.83;31.71
72024;BME280;59889;50.700;5.440;2022-09-23T00:14:06;100243.83;;;23.94;31.61
72024;BME280;59889;50.700;5.440;2022-09-23T00:16:33;100241.92;;;23.71;31.60
72024;BME280;59889;50.700;5.440;2022-09-23T00:18:57;100245.84;;;23.49;31.58
72024;BME280;59889;50.700;5.440;2022-09-23T00:21:21;100246.44;;;23.79;31.45
72024;BME280;59889;50.700;5.440;2022-09-23T00:23:47;100246.31;;;24.06;31.43
72024;BME280;59889;50.700;5.440;2022-09-23T00:26:13;100246.43;;;24.01;31.48
72024;BME280;59889;50.700;5.440;2022-09-23T00:28:37;100242.71;;;24.05;31.43
72024;BME280;59889;50.700;5.440;2022-09-23T00:31:02;100233.96;;;23.63;31.65
72024;BME280;59889;50.700;5.440;2022-09-23T00:33:27;100235.77;;;23.98;31.53
72024;BME280;59889;50.700;5.440;2022-09-23T00:35:57;100234.56;;;23.97;31.51
72024;BME280;59889;50.700;5.440;2022-09-23T00:38:17;100234.17;;;23.89;31.61
72024;BME280;59889;50.700;5.440;2022-09-23T00:40:42;100234.60;;;23.97;31.50
72024;BME280;59889;50.700;5.440;2022-09-23T00:43:09;100233.90;;;23.91;31.58
72024;BME280;59889;50.700;5.440;2022-09-23T00:45:32;100232.96;;;23.74;31.48
72024;BME280;59889;50.700;5.440;2022-09-23T00:47:58;100231.42;;;23.97;31.50
72024;BME280;59889;50.700;5.440;2022-09-23T00:50:25;100228.00;;;23.91;31.59
72024;BME280;59889;50.700;5.440;2022-09-23T00:52:49;100226.48;;;23.75;31.45
72024;BME280;59889;50.700;5.440;2022-09-23T00:55:17;100225.46;;;23.90;31.57
72024;BME280;59889;50.700;5.440;2022-09-23T00:57:39;100222.87;;;23.74;31.43
72024;BME280;59889;50.700;5.440;2022-09-23T01:00:03;100216.83;;;23.87;31.55
72024;BME280;59889;50.700;5.440;2022-09-23T01:02:28;100217.75;;;23.96;31.42
72024;BME280;59889;50.700;5.440;2022-09-23T01:04:53;100215.47;;;24.02;31.41
72024;BME280;59889;50.700;5.440;2022-09-23T01:07:18;100210.20;;;23.95;31.48
72024;BME280;59889;50.700;5.440;2022-09-23T01:09:43;100209.53;;;23.95;31.44
72024;BME280;59889;50.700;5.440;2022-09-23T01:12:15;100208.33;;;24.02;31.34
72024;BME280;59889;50.700;5.440;2022-09-23T01:14:40;100209.24;;;24.02;31.34
72024;BME280;59889;50.700;5.440;2022-09-23T01:17:03;100203.60;;;23.70;31.48
72024;BME280;59889;50.700;5.440;2022-09-23T01:19:41;100206.02;;;24.03;31.35
72024;BME280;59889;50.700;5.440;2022-09-23T01:21:52;100208.52;;;23.70;31.43
72024;BME280;59889;50.700;5.440;2022-09-23T01:24:25;100206.49;;;23.91;31.46
72024;BME280;59889;50.700;5.440;2022-09-23T01:26:51;100208.39;;;24.03;31.36
72024;BME280;59889;50.700;5.440;2022-09-23T01:29:14;100206.20;;;23.84;31.30
72024;BME280;59889;50.700;5.440;2022-09-23T01:31:32;100207.03;;;24.01;31.34
72024;BME280;59889;50.700;5.440;2022-09-23T01:33:55;100208.61;;;23.78;31.31
72024;BME280;59889;50.700;5.440;2022-09-23T01:36:23;100207.20;;;24.01;31.34
72024;BME280;59889;50.700;5.440;2022-09-23T01:38:49;100204.11;;;23.96;31.40
72024;BME280;59889;50.700;5.440;2022-09-23T01:41:21;100198.27;;;23.91;31.46
72024;BME280;59889;50.700;5.440;2022-09-23T01:43:39;100197.57;;;23.98;31.36
72024;BME280;59889;50.700;5.440;2022-09-23T01:45:59;100197.67;;;23.91;31.43
72024;BME280;59889;50.700;5.440;2022-09-23T01:48:28;100195.84;;;23.95;31.37
72024;BME280;59889;50.700;5.440;2022-09-23T01:50:52;100196.55;;;23.75;31.33
72024;BME280;59889;50.700;5.440;2022-09-23T01:53:17;100198.05;;;23.72;31.38
72024;BME280;59889;50.700;5.440;2022-09-23T01:55:43;100197.90;;;23.97;31.34
72024;BME280;59889;50.700;5.440;2022-09-23T01:58:06;100197.60;;;23.87;31.51
72024;BME280;59889;50.700;5.440;2022-09-23T02:00:32;100191.08;;;23.61;31.43
72024;BME280;59889;50.700;5.440;2022-09-23T02:02:57;100191.76;;;23.97;31.40
72024;BME280;59889;50.700;5.440;2022-09-23T02:05:24;100193.55;;;23.89;31.46
72024;BME280;59889;50.700;5.440;2022-09-23T02:07:48;100196.08;;;23.90;31.44
72024;BME280;59889;50.700;5.440;2022-09-23T02:10:14;100195.82;;;24.03;31.27
72024;BME280;59889;50.700;5.440;2022-09-23T02:12:37;100191.94;;;23.87;31.49
72024;BME280;59889;50.700;5.440;2022-09-23T02:15:03;100192.34;;;23.65;31.46
72024;BME280;59889;50.700;5.440;2022-09-23T02:17:30;100192.97;;;24.00;31.29
72024;BME280;59889;50.700;5.440;2022-09-23T02:19:54;100189.69;;;23.93;31.32
72024;BME280;59889;50.700;5.440;2022-09-23T02:22:18;100187.66;;;23.88;31.43
72024;BME280;59889;50.700;5.440;2022-09-23T02:24:40;100183.79;;;23.98;31.32
72024;BME280;59889;50.700;5.440;2022-09-23T02:27:13;100182.20;;;23.92;31.37
72024;BME280;59889;50.700;5.440;2022-09-23T02:29:33;100182.72;;;23.95;31.36
72024;BME280;59889;50.700;5.440;2022-09-23T02:32:06;100185.68;;;23.95;31.36
72024;BME280;59889;50.700;5.440;2022-09-23T02:34:29;100186.60;;;23.98;31.29
72024;BME280;59889;50.700;5.440;2022-09-23T02:36:51;100185.64;;;23.75;31.59
72024;BME280;59889;50.700;5.440;2022-09-23T02:39:12;100185.34;;;23.83;31.50
72024;BME280;59889;50.700;5.440;2022-09-23T02:41:42;100181.62;;;23.91;31.39
72024;BME280;59889;50.700;5.440;2022-09-23T02:44:03;100177.17;;;23.78;31.54
72024;BME280;59889;50.700;5.440;2022-09-23T02:46:26;100173.48;;;23.87;31.39
72024;BME280;59889;50.700;5.440;2022-09-23T02:48:53;100169.05;;;23.86;31.42
72024;BME280;59889;50.700;5.440;2022-09-23T02:51:15;100165.68;;;23.65;31.38
72024;BME280;59889;50.700;5.440;2022-09-23T02:53:40;100161.44;;;23.81;31.47
72024;BME280;59889;50.700;5.440;2022-09-23T02:56:12;100162.32;;;23.94;31.30
72024;BME280;59889;50.700;5.440;2022-09-23T02:58:31;100160.36;;;23.85;31.39
72024;BME280;59889;50.700;5.440;2022-09-23T03:01:02;100160.58;;;23.83;31.48
72024;BME280;59889;50.700;5.440;2022-09-23T03:03:34;100160.98;;;23.84;31.42
72024;BME280;59889;50.700;5.440;2022-09-23T03:05:52;100162.62;;;23.98;31.25
72024;BME280;59889;50.700;5.440;2022-09-23T03:08:24;100162.40;;;23.99;31.23
72024;BME280;59889;50.700;5.440;2022-09-23T03:10:43;100159.66;;;23.88;31.30
72024;BME280;59889;50.700;5.440;2022-09-23T03:13:06;100159.14;;;23.93;31.26
72024;BME280;59889;50.700;5.440;2022-09-23T03:15:33;100154.19;;;24.01;31.26
72024;BME280;59889;50.700;5.440;2022-09-23T03:17:59;100150.04;;;23.94;31.28
72024;BME280;59889;50.700;5.440;2022-09-23T03:20:23;100146.82;;;23.92;31.29
72024;BME280;59889;50.700;5.440;2022-09-23T03:22:45;100144.65;;;23.87;31.28
72024;BME280;59889;50.700;5.440;2022-09-23T03:25:09;100142.64;;;23.84;31.38
72024;BME280;59889;50.700;5.440;2022-09-23T03:27:33;100139.82;;;24.10;31.32
72024;BME280;59889;50.700;5.440;2022-09-23T03:29:57;100135.54;;;23.61;31.36
72024;BME280;59889;50.700;5.440;2022-09-23T03:32:24;100131.81;;;23.89;31.28
72024;BME280;59889;50.700;5.440;2022-09-23T03:34:49;100132.00;;;23.57;31.40
72024;BME280;59889;50.700;5.440;2022-09-23T03:37:14;100131.06;;;23.72;31.48
72024;BME280;59889;50.700;5.440;2022-09-23T03:39:39;100125.87;;;23.76;31.40
72024;BME280;59889;50.700;5.440;2022-09-23T03:42:06;100117.57;;;23.83;31.37
72024;BME280;59889;50.700;5.440;2022-09-23T03:44:28;100118.70;;;23.72;31.50
72024;BME280;59889;50.700;5.440;2022-09-23T03:46:52;100120.59;;;23.81;31.45
72024;BME280;59889;50.700;5.440;2022-09-23T03:49:22;100120.84;;;23.94;31.22
72024;BME280;59889;50.700;5.440;2022-09-23T03:51:42;100121.82;;;23.73;31.45
72024;BME280;59889;50.700;5.440;2022-09-23T03:54:07;100117.97;;;23.79;31.43
72024;BME280;59889;50.700;5.440;2022-09-23T03:56:32;100118.53;;;23.89;31.30
72024;BME280;59889;50.700;5.440;2022-09-23T03:58:57;100118.65;;;23.83;31.33
72024;BME280;59889;50.700;5.440;2022-09-23T04:01:22;100121.82;;;23.77;31.42
72024;BME280;59889;50.700;5.440;2022-09-23T04:03:47;100119.70;;;23.76;31.43
72024;BME280;59889;50.700;5.440;2022-09-23T04:06:12;100118.06;;;23.71;31.82
72024;BME280;59889;50.700;5.440;2022-09-23T04:08:37;100117.62;;;23.67;32.20
72024;BME280;59889;50.700;5.440;2022-09-23T04:11:03;100116.83;;;23.55;32.18
72024;BME280;59889;50.700;5.440;2022-09-23T04:13:27;100114.00;;;23.31;32.32
72024;BME280;59889;50.700;5.440;2022-09-23T04:15:53;100113.90;;;23.45;31.97
72024;BME280;59889;50.700;5.440;2022-09-23T04:18:18;100111.14;;;23.36;31.92
72024;BME280;59889;50.700;5.440;2022-09-23T04:20:43;100112.54;;;23.28;31.82
72024;BME280;59889;50.700;5.440;2022-09-23T04:23:08;100112.35;;;23.31;31.62
72024;BME280;59889;50.700;5.440;2022-09-23T04:25:33;100111.73;;;23.32;31.46
72024;BME280;59889;50.700;5.440;2022-09-23T04:27:58;100112.01;;;23.38;31.40
72024;BME280;59889;50.700;5.440;2022-09-23T04:30:23;100110.36;;;23.32;31.84
72024;BME280;59889;50.700;5.440;2022-09-23T04:32:48;100114.43;;;23.40;32.04
72024;BME280;59889;50.700;5.440;2022-09-23T04:35:13;100112.76;;;23.36;32.24
72024;BME280;59889;50.700;5.440;2022-09-23T04:37:38;100111.94;;;23.17;32.54
72024;BME280;59889;50.700;5.440;2022-09-23T04:40:04;100108.82;;;23.66;32.53
72024;BME280;59889;50.700;5.440;2022-09-23T04:42:28;100108.14;;;23.12;32.63
72024;BME280;59889;50.700;5.440;2022-09-23T04:44:53;100106.71;;;23.08;32.71
72024;BME280;59889;50.700;5.440;2022-09-23T04:47:18;100107.88;;;23.37;32.66
72024;BME280;59889;50.700;5.440;2022-09-23T04:49:43;100104.81;;;23.08;32.74
72024;BME280;59889;50.700;5.440;2022-09-23T04:52:08;100101.37;;;23.41;32.61
72024;BME280;59889;50.700;5.440;2022-09-23T04:54:33;100097.79;;;23.37;32.68
72024;BME280;59889;50.700;5.440;2022-09-23T04:56:59;100095.92;;;23.09;32.70
72024;BME280;59889;50.700;5.440;2022-09-23T04:59:24;100095.63;;;23.67;32.57
72024;BME280;59889;50.700;5.440;2022-09-23T05:01:49;100091.17;;;23.11;32.66
72024;BME280;59889;50.700;5.440;2022-09-23T05:04:14;100091.48;;;23.06;32.71
72024;BME280;59889;50.700;5.440;2022-09-23T05:06:39;100090.73;;;23.06;32.70
72024;BME280;59889;50.700;5.440;2022-09-23T05:09:06;100094.23;;;23.14;32.59
72024;BME280;59889;50.700;5.440;2022-09-23T05:11:29;100095.58;;;23.42;32.54
72024;BME280;59889;50.700;5.440;2022-09-23T05:13:54;100100.54;;;23.15;32.57
72024;BME280;59889;50.700;5.440;2022-09-23T05:16:20;100101.94;;;23.34;32.62
72024;BME280;59889;50.700;5.440;2022-09-23T05:18:45;100102.04;;;23.12;32.57
72024;BME280;59889;50.700;5.440;2022-09-23T05:21:11;100104.86;;;23.38;32.52
72024;BME280;59889;50.700;5.440;2022-09-23T05:23:34;100107.08;;;23.37;32.49
72024;BME280;59889;50.700;5.440;2022-09-23T05:26:01;100112.89;;;23.13;32.53
72024;BME280;59889;50.700;5.440;2022-09-23T05:28:25;100111.51;;;23.05;32.64
72024;BME280;59889;50.700;5.440;2022-09-23T05:30:49;100110.26;;;23.42;32.52
72024;BME280;59889;50.700;5.440;2022-09-23T05:33:14;100108.76;;;23.17;32.56
72024;BME280;59889;50.700;5.440;2022-09-23T05:35:45;100103.08;;;23.15;32.64
72024;BME280;59889;50.700;5.440;2022-09-23T05:38:05;100099.81;;;23.18;32.71
72024;BME280;59889;50.700;5.440;2022-09-23T05:40:29;100100.12;;;23.18;32.75
72024;BME280;59889;50.700;5.440;2022-09-23T05:42:55;100098.63;;;23.43;32.78
72024;BME280;59889;50.700;5.440;2022-09-23T05:45:20;100099.31;;;23.12;32.97
72024;BME280;59889;50.700;5.440;2022-09-23T05:47:45;100101.90;;;23.03;33.16
72024;BME280;59889;50.700;5.440;2022-09-23T05:50:10;100101.69;;;22.94;33.31
72024;BME280;59889;50.700;5.440;2022-09-23T05:52:35;100103.78;;;23.15;33.11
72024;BME280;59889;50.700;5.440;2022-09-23T05:55:00;100101.83;;;23.08;33.24
72024;BME280;59889;50.700;5.440;2022-09-23T05:57:25;100100.81;;;23.05;33.25
72024;BME280;59889;50.700;5.440;2022-09-23T05:59:50;100102.55;;;22.98;33.31
72024;BME280;59889;50.700;5.440;2022-09-23T06:02:15;100104.89;;;23.41;33.35
72024;BME280;59889;50.700;5.440;2022-09-23T06:04:40;100104.34;;;23.37;33.14
72024;BME280;59889;50.700;5.440;2022-09-23T06:07:05;100108.52;;;23.02;33.25
72024;BME280;59889;50.700;5.440;2022-09-23T06:09:30;100114.02;;;23.07;33.18
72024;BME280;59889;50.700;5.440;2022-09-23T06:12:01;100117.21;;;23.13;33.08
72024;BME280;59889;50.700;5.440;2022-09-23T06:14:20;100117.25;;;23.26;33.18
72024;BME280;59889;50.700;5.440;2022-09-23T06:16:45;100117.54;;;23.10;33.08
72024;BME280;59889;50.700;5.440;2022-09-23T06:19:11;100113.31;;;22.92;33.27
72024;BME280;59889;50.700;5.440;2022-09-23T06:21:37;100114.40;;;23.07;33.08
72024;BME280;59889;50.700;5.440;2022-09-23T06:24:01;100117.14;;;23.23;33.18
72024;BME280;59889;50.700;5.440;2022-09-23T06:26:26;100115.88;;;23.07;33.06
72024;BME280;59889;50.700;5.440;2022-09-23T06:28:51;100113.76;;;23.30;33.04
72024;BME280;59889;50.700;5.440;2022-09-23T06:31:16;100111.65;;;23.09;32.99
72024;BME280;59889;50.700;5.440;2022-09-23T06:33:41;100113.06;;;23.05;33.02
72024;BME280;59889;50.700;5.440;2022-09-23T06:36:06;100114.22;;;23.29;32.99
72024;BME280;59889;50.700;5.440;2022-09-23T06:38:31;100115.67;;;23.04;32.99
72024;BME280;59889;50.700;5.440;2022-09-23T06:40:57;100112.71;;;22.95;33.09
72024;BME280;59889;50.700;5.440;2022-09-23T06:43:23;100110.85;;;22.94;33.08
72024;BME280;59889;50.700;5.440;2022-09-23T06:45:46;100116.25;;;23.03;32.95
72024;BME280;59889;50.700;5.440;2022-09-23T06:48:12;100116.24;;;23.52;32.92
72024;BME280;59889;50.700;5.440;2022-09-23T06:50:36;100116.07;;;23.25;32.95
72024;BME280;59889;50.700;5.440;2022-09-23T06:53:01;100118.46;;;23.10;32.82
72024;BME280;59889;50.700;5.440;2022-09-23T06:55:26;100118.72;;;23.19;32.71
72024;BME280;59889;50.700;5.440;2022-09-23T06:57:52;100117.69;;;23.07;32.85
72024;BME280;59889;50.700;5.440;2022-09-23T07:00:17;100115.29;;;23.18;32.71
72024;BME280;59889;50.700;5.440;2022-09-23T07:02:42;100113.14;;;23.55;32.53
72024;BME280;59889;50.700;5.440;2022-09-23T07:05:07;100110.83;;;23.22;32.61
72024;BME280;59889;50.700;5.440;2022-09-23T07:07:32;100110.41;;;23.52;32.24
72024;BME280;59889;50.700;5.440;2022-09-23T07:09:57;100108.44;;;23.45;32.02
72024;BME280;59889;50.700;5.440;2022-09-23T07:12:22;100108.36;;;24.35;31.26
72024;BME280;59889;50.700;5.440;2022-09-23T07:14:47;100110.81;;;24.86;30.09
72024;BME280;59889;50.700;5.440;2022-09-23T07:17:12;100116.19;;;25.02;29.83
72024;BME280;59889;50.700;5.440;2022-09-23T07:19:37;100120.04;;;25.09;30.26
72024;BME280;59889;50.700;5.440;2022-09-23T07:22:02;100120.32;;;24.59;29.56
72024;BME280;59889;50.700;5.440;2022-09-23T07:24:27;100121.94;;;24.65;29.72
72024;BME280;59889;50.700;5.440;2022-09-23T07:26:52;100121.38;;;24.94;29.56
72024;BME280;59889;50.700;5.440;2022-09-23T07:29:17;100122.51;;;24.91;29.68
72024;BME280;59889;50.700;5.440;2022-09-23T07:31:42;100119.22;;;24.34;30.02
72024;BME280;59889;50.700;5.440;2022-09-23T07:34:08;100117.50;;;24.54;30.11
72024;BME280;59889;50.700;5.440;2022-09-23T07:36:32;100117.77;;;24.24;30.19
72024;BME280;59889;50.700;5.440;2022-09-23T07:38:58;100117.73;;;24.09;30.34
72024;BME280;59889;50.700;5.440;2022-09-23T07:41:23;100115.97;;;24.22;30.78
72024;BME280;59889;50.700;5.440;2022-09-23T07:43:48;100115.15;;;23.86;31.18
72024;BME280;59889;50.700;5.440;2022-09-23T07:46:15;100115.10;;;23.52;31.61
72024;BME280;59889;50.700;5.440;2022-09-23T07:48:38;100117.48;;;23.22;31.97
72024;BME280;59889;50.700;5.440;2022-09-23T07:51:06;100120.14;;;23.31;31.86
72024;BME280;59889;50.700;5.440;2022-09-23T07:53:28;100115.83;;;23.33;32.14
72024;BME280;59889;50.700;5.440;2022-09-23T07:55:54;100114.80;;;23.43;32.04
72024;BME280;59889;50.700;5.440;2022-09-23T07:58:18;100118.82;;;23.23;32.29
72024;BME280;59889;50.700;5.440;2022-09-23T08:00:43;100118.58;;;23.04;32.55
72024;BME280;59889;50.700;5.440;2022-09-23T08:03:08;100118.39;;;23.10;32.46
72024;BME280;59889;50.700;5.440;2022-09-23T08:05:33;100119.89;;;23.13;32.39
72024;BME280;59889;50.700;5.440;2022-09-23T08:07:58;100120.73;;;23.09;32.44
72024;BME280;59889;50.700;5.440;2022-09-23T08:10:23;100124.06;;;22.92;32.61
72024;BME280;59889;50.700;5.440;2022-09-23T08:12:48;100123.71;;;23.04;32.50
72024;BME280;59889;50.700;5.440;2022-09-23T08:15:13;100124.96;;;23.16;32.34
72024;BME280;59889;50.700;5.440;2022-09-23T08:17:38;100128.30;;;23.27;32.52
72024;BME280;59889;50.700;5.440;2022-09-23T08:20:05;100131.38;;;22.94;32.63
72024;BME280;59889;50.700;5.440;2022-09-23T08:22:28;100131.77;;;23.07;32.45
72024;BME280;59889;50.700;5.440;2022-09-23T08:24:54;100131.82;;;23.44;32.29
72024;BME280;59889;50.700;5.440;2022-09-23T08:27:19;100131.20;;;23.09;32.39
72024;BME280;59889;50.700;5.440;2022-09-23T08:29:44;100129.61;;;22.95;32.63
72024;BME280;59889;50.700;5.440;2022-09-23T08:32:09;100128.09;;;23.06;32.53
72024;BME280;59889;50.700;5.440;2022-09-23T08:34:34;100127.12;;;22.97;32.57
72024;BME280;59889;50.700;5.440;2022-09-23T08:36:59;100129.74;;;22.96;32.59
72024;BME280;59889;50.700;5.440;2022-09-23T08:39:24;100131.38;;;23.46;32.28
72024;BME280;59889;50.700;5.440;2022-09-23T08:42:01;100132.78;;;23.13;32.38
72024;BME280;59889;50.700;5.440;2022-09-23T08:44:18;100133.31;;;23.18;32.35
72024;BME280;59889;50.700;5.440;2022-09-23T08:46:43;100129.78;;;23.22;32.27
72024;BME280;59889;50.700;5.440;2022-09-23T08:49:05;100128.69;;;23.11;32.41
72024;BME280;59889;50.700;5.440;2022-09-23T08:51:34;100128.43;;;22.98;32.55
72024;BME280;59889;50.700;5.440;2022-09-23T08:53:57;100131.78;;;22.99;32.53
72024;BME280;59889;50.700;5.440;2022-09-23T08:56:22;100132.82;;;23.04;32.49
72024;BME280;59889;50.700;5.440;2022-09-23T08:58:54;100134.46;;;23.19;32.31
72024;BME280;59889;50.700;5.440;2022-09-23T09:01:16;100134.51;;;23.23;32.27
72024;BME280;59889;50.700;5.440;2022-09-23T09:03:40;100131.79;;;23.45;32.27
72024;BME280;59889;50.700;5.440;2022-09-23T09:06:00;100127.93;;;23.10;32.42
72024;BME280;59889;50.700;5.440;2022-09-23T09:08:29;100125.41;;;23.22;32.28
72024;BME280;59889;50.700;5.440;2022-09-23T09:10:52;100121.17;;;23.13;32.39
72024;BME280;59889;50.700;5.440;2022-09-23T09:13:24;100119.97;;;23.25;32.23
72024;BME280;59889;50.700;5.440;2022-09-23T09:15:44;100125.99;;;23.24;32.25
72024;BME280;59889;50.700;5.440;2022-09-23T09:18:07;100126.54;;;23.32;32.14
72024;BME280;59889;50.700;5.440;2022-09-23T09:20:44;100123.83;;;23.21;32.32
72024;BME280;59889;50.700;5.440;2022-09-23T09:22:56;100121.26;;;23.25;32.32
72024;BME280;59889;50.700;5.440;2022-09-23T09:25:35;100121.78;;;23.25;32.32
72024;BME280;59889;50.700;5.440;2022-09-23T09:27:46;100121.13;;;23.30;32.26
72024;BME280;59889;50.700;5.440;2022-09-23T09:30:11;100119.62;;;23.22;32.35
72024;BME280;59889;50.700;5.440;2022-09-23T09:32:40;100118.44;;;22.99;32.34
72024;BME280;59889;50.700;5.440;2022-09-23T09:35:06;100120.31;;;23.27;32.29
72024;BME280;59889;50.700;5.440;2022-09-23T09:37:31;100118.94;;;23.22;32.34
72024;BME280;59889;50.700;5.440;2022-09-23T09:39:51;100119.36;;;23.19;32.35
72024;BME280;59889;50.700;5.440;2022-09-23T09:42:20;100117.26;;;23.00;32.31
72024;BME280;59889;50.700;5.440;2022-09-23T09:44:45;100111.96;;;23.21;32.31
72024;BME280;59889;50.700;5.440;2022-09-23T09:47:15;100110.62;;;23.28;32.24
72024;BME280;59889;50.700;5.440;2022-09-23T09:49:35;100110.49;;;23.31;32.20
72024;BME280;59889;50.700;5.440;2022-09-23T09:54:22;100103.58;;;23.17;32.34
72024;BME280;59889;50.700;5.440;2022-09-23T09:56:46;100103.59;;;23.29;32.20
72024;BME280;59889;50.700;5.440;2022-09-23T09:59:17;100100.21;;;23.28;32.22
72024;BME280;59889;50.700;5.440;2022-09-23T10:01:36;100099.47;;;23.30;32.18
72024;BME280;59889;50.700;5.440;2022-09-23T10:04:04;100098.50;;;23.27;32.23
72024;BME280;59889;50.700;5.440;2022-09-23T10:06:28;100096.11;;;23.17;32.35
72024;BME280;59889;50.700;5.440;2022-09-23T10:09:04;100096.40;;;23.21;32.32
72024;BME280;59889;50.700;5.440;2022-09-23T10:11:17;100097.42;;;23.24;32.27
72024;BME280;59889;50.700;5.440;2022-09-23T10:16:07;100094.53;;;23.17;32.34
72024;BME280;59889;50.700;5.440;2022-09-23T10:18:36;100091.23;;;23.09;32.44
72024;BME280;59889;50.700;5.440;2022-09-23T10:21:01;100091.52;;;23.02;32.21
72024;BME280;59889;50.700;5.440;2022-09-23T10:23:26;100087.50;;;23.24;32.27
72024;BME280;59889;50.700;5.440;2022-09-23T10:25:55;100085.70;;;23.73;32.26
72024;BME280;59889;50.700;5.440;2022-09-23T10:28:31;100085.91;;;23.26;32.18
72024;BME280;59889;50.700;5.440;2022-09-23T10:30:37;100083.09;;;23.22;32.17
72024;BME280;59889;50.700;5.440;2022-09-23T10:33:02;100082.03;;;23.37;32.23
72024;BME280;59889;50.700;5.440;2022-09-23T10:35:27;100082.27;;;23.21;32.08
72024;BME280;59889;50.700;5.440;2022-09-23T10:37:53;100083.81;;;23.23;32.03
72024;BME280;59889;50.700;5.440;2022-09-23T10:40:20;100083.70;;;23.10;32.15
72024;BME280;59889;50.700;5.440;2022-09-23T10:42:52;100084.26;;;23.61;32.16
72024;BME280;59889;50.700;5.440;2022-09-23T10:45:16;100085.73;;;23.24;32.04
72024;BME280;59889;50.700;5.440;2022-09-23T10:47:35;100084.79;;;23.12;32.17
72024;BME280;59889;50.700;5.440;2022-09-23T10:50:08;100084.73;;;23.32;31.97
72024;BME280;59889;50.700;5.440;2022-09-23T10:52:37;100081.41;;;23.24;32.07
72024;BME280;59889;50.700;5.440;2022-09-23T10:54:57;100081.48;;;23.33;31.95
72024;BME280;59889;50.700;5.440;2022-09-23T10:57:22;100084.30;;;23.33;32.02
72024;BME280;59889;50.700;5.440;2022-09-23T10:59:48;100084.62;;;23.62;32.03
72024;BME280;59889;50.700;5.440;2022-09-23T11:02:16;100083.46;;;23.37;32.12
72024;BME280;59889;50.700;5.440;2022-09-23T11:04:42;100083.86;;;23.41;32.12
72024;BME280;59889;50.700;5.440;2022-09-23T11:07:05;100082.98;;;23.45;32.10
72024;BME280;59889;50.700;5.440;2022-09-23T11:09:29;100086.91;;;23.67;32.20
72024;BME280;59889;50.700;5.440;2022-09-23T11:11:52;100084.49;;;23.37;32.29
72024;BME280;59889;50.700;5.440;2022-09-23T11:14:23;100086.00;;;23.35;32.37
72024;BME280;59889;50.700;5.440;2022-09-23T11:16:43;100086.08;;;23.40;32.34
72024;BME280;59889;50.700;5.440;2022-09-23T11:21:36;100083.03;;;23.32;32.50
72024;BME280;59889;50.700;5.440;2022-09-23T11:24:02;100082.58;;;23.35;32.51
72024;BME280;59889;50.700;5.440;2022-09-23T11:26:24;100079.45;;;23.49;32.37
72024;BME280;59889;50.700;5.440;2022-09-23T11:28:53;100078.78;;;23.40;32.46
72024;BME280;59889;50.700;5.440;2022-09-23T11:31:13;100078.41;;;23.37;32.52
72024;BME280;59889;50.700;5.440;2022-09-23T11:33:39;100077.00;;;23.44;32.48
72024;BME280;59889;50.700;5.440;2022-09-23T11:35:58;100073.70;;;23.46;32.44
72024;BME280;59889;50.700;5.440;2022-09-23T11:38:21;100075.51;;;23.48;32.47
72024;BME280;59889;50.700;5.440;2022-09-23T11:40:46;100075.82;;;23.33;32.64
72024;BME280;59889;50.700;5.440;2022-09-23T11:43:15;100070.19;;;23.39;32.61
72024;BME280;59889;50.700;5.440;2022-09-23T11:45:39;100070.07;;;23.42;32.56
72024;BME280;59889;50.700;5.440;2022-09-23T11:48:03;100066.65;;;23.52;32.44
72024;BME280;59889;50.700;5.440;2022-09-23T11:50:30;100065.44;;;23.48;32.51
72024;BME280;59889;50.700;5.440;2022-09-23T11:52:52;100064.86;;;23.43;32.55
72024;BME280;59889;50.700;5.440;2022-09-23T11:55:17;100064.82;;;23.32;32.70
72024;BME280;59889;50.700;5.440;2022-09-23T11:57:44;100065.61;;;23.43;32.60
72024;BME280;59889;50.700;5.440;2022-09-23T12:00:12;100062.35;;;23.57;32.44
72024;BME280;59889;50.700;5.440;2022-09-23T12:02:40;100060.45;;;23.60;32.38
72024;BME280;59889;50.700;5.440;2022-09-23T12:05:00;100056.43;;;23.49;32.53
72024;BME280;59889;50.700;5.440;2022-09-23T12:07:25;100054.85;;;23.37;32.65
72024;BME280;59889;50.700;5.440;2022-09-23T12:09:53;100055.42;;;23.51;32.51
72024;BME280;59889;50.700;5.440;2022-09-23T12:12:14;100057.22;;;23.55;32.45
72024;BME280;59889;50.700;5.440;2022-09-23T12:14:51;100055.25;;;23.49;32.50
72024;BME280;59889;50.700;5.440;2022-09-23T12:17:14;100054.16;;;23.53;32.48
72024;BME280;59889;50.700;5.440;2022-09-23T12:19:42;100049.66;;;23.45;32.57
72024;BME280;59889;50.700;5.440;2022-09-23T12:22:02;100045.20;;;23.57;32.42
72024;BME280;59889;50.700;5.440;2022-09-23T12:24:31;100044.04;;;23.32;32.72
72024;BME280;59889;50.700;5.440;2022-09-23T12:26:41;100042.53;;;23.49;32.53
72024;BME280;59889;50.700;5.440;2022-09-23T12:29:10;100044.25;;;23.47;32.54
72024;BME280;59889;50.700;5.440;2022-09-23T12:31:35;100045.42;;;23.48;32.54
72024;BME280;59889;50.700;5.440;2022-09-23T12:33:57;100043.58;;;23.55;32.45
72024;BME280;59889;50.700;5.440;2022-09-23T12:36:25;100045.58;;;23.55;32.46
72024;BME280;59889;50.700;5.440;2022-09-23T12:38:48;100044.60;;;23.57;32.39
72024;BME280;59889;50.700;5.440;2022-09-23T12:41:18;100045.20;;;23.55;32.44
72024;BME280;59889;50.700;5.440;2022-09-23T12:43:42;100041.71;;;23.49;32.49
72024;BME280;59889;50.700;5.440;2022-09-23T12:48:42;100038.58;;;23.40;32.32